sensor_id;sensor_type;location;lat;lon;timestamp;P1;durP1;ratioP1;P2;durP2;ratioP2
9304;SDS011;4690;52.422;13.486;2024-03-25T00:08:06;8.53;;;7.47;;
9304;SDS011;4690;52.422;13.486;2024-03-25T00:10:32;9.07;;;6.67;;
9304;SDS011;4690;52.422;13.486;2024-03-25T00:12:58;8.10;;;6.63;;
9304;SDS011;4690;52.422;13.486;2024-03-25T00:15:25;7.30;;;6.60;;
9304;SDS011;4690;52.422;13.486;2024-03-25T00:17:51;6.50;;;5.90;;
9304;SDS011;4690;52.422;13.486;2024-03-25T00:20:17;6.80;;;6.07;;
9304;SDS011;4690;52.422;13.486;2024-03-25T00:22:43;9.17;;;6.80;;
9304;SDS011;4690;52.422;13.486;2024-03-25T00:25:09;10.77;;;6.90;;
9304;SDS011;4690;52.422;13.486;2024-03-25T00:27:35;6.27;;;5.67;;
9304;SDS011;4690;52.422;13.486;2024-03-25T00:30:01;9.37;;;6.90;;
9304;SDS011;4690;52.422;13.486;2024-03-25T00:32:27;7.57;;;6.33;;
9304;SDS011;4690;52.422;13.486;2024-03-25T00:34:53;8.80;;;5.30;;
9304;SDS011;4690;52.422;13.486;2024-03-25T00:37:18;9.07;;;6.60;;
9304;SDS011;4690;52.422;13.486;2024-03-25T00:39:44;6.30;;;5.40;;
9304;SDS011;4690;52.422;13.486;2024-03-25T00:42:10;7.57;;;6.33;;
9304;SDS011;4690;52.422;13.486;2024-03-25T00:44:37;8.03;;;6.40;;
9304;SDS011;4690;52.422;13.486;2024-03-25T00:47:03;8.40;;;7.10;;
9304;SDS011;4690;52.422;13.486;2024-03-25T00:49:29;7.70;;;6.93;;
9304;SDS011;4690;52.422;13.486;2024-03-25T00:51:54;8.13;;;6.70;;
9304;SDS011;4690;52.422;13.486;2024-03-25T00:54:21;7.47;;;6.73;;
9304;SDS011;4690;52.422;13.486;2024-03-25T00:56:48;9.10;;;6.93;;
9304;SDS011;4690;52.422;13.486;2024-03-25T00:59:14;11.73;;;8.03;;
9304;SDS011;4690;52.422;13.486;2024-03-25T01:01:40;9.07;;;7.47;;
9304;SDS011;4690;52.422;13.486;2024-03-25T01:04:06;8.23;;;7.10;;
9304;SDS011;4690;52.422;13.486;2024-03-25T01:06:32;9.63;;;7.90;;
9304;SDS011;4690;52.422;13.486;2024-03-25T01:08:58;6.97;;;6.30;;
9304;SDS011;4690;52.422;13.486;2024-03-25T01:11:24;12.00;;;8.43;;
9304;SDS011;4690;52.422;13.486;2024-03-25T01:13:50;8.27;;;7.10;;
9304;SDS011;4690;52.422;13.486;2024-03-25T01:16:16;9.50;;;7.60;;
9304;SDS011;4690;52.422;13.486;2024-03-25T01:18:41;8.63;;;7.60;;
9304;SDS011;4690;52.422;13.486;2024-03-25T01:21:08;8.03;;;7.23;;
9304;SDS011;4690;52.422;13.486;2024-03-25T01:23:33;14.33;;;9.03;;
9304;SDS011;4690;52.422;13.486;2024-03-25T01:25:59;10.37;;;8.07;;
9304;SDS011;4690;52.422;13.486;2024-03-25T01:28:25;14.37;;;10.10;;
9304;SDS011;4690;52.422;13.486;2024-03-25T01:30:51;14.17;;;10.23;;
9304;SDS011;4690;52.422;13.486;2024-03-25T01:33:17;11.83;;;9.33;;
9304;SDS011;4690;52.422;13.486;2024-03-25T01:35:42;12.40;;;9.63;;
9304;SDS011;4690;52.422;13.486;2024-03-25T01:38:08;10.50;;;8.77;;
9304;SDS011;4690;52.422;13.486;2024-03-25T01:40:34;10.23;;;8.40;;
9304;SDS011;4690;52.422;13.486;2024-03-25T01:43:00;9.33;;;8.30;;
9304;SDS011;4690;52.422;13.486;2024-03-25T01:45:29;14.37;;;9.87;;
9304;SDS011;4690;52.422;13.486;2024-03-25T01:47:58;12.47;;;9.53;;
9304;SDS011;4690;52.422;13.486;2024-03-25T01:50:29;9.70;;;8.20;;
9304;SDS011;4690;52.422;13.486;2024-03-25T01:53:00;11.97;;;8.43;;
9304;SDS011;4690;52.422;13.486;2024-03-25T01:55:28;8.50;;;5.70;;
9304;SDS011;4690;52.422;13.486;2024-03-25T01:57:57;6.47;;;5.00;;
9304;SDS011;4690;52.422;13.486;2024-03-25T02:00:24;6.47;;;5.30;;
9304;SDS011;4690;52.422;13.486;2024-03-25T02:02:52;7.47;;;4.70;;
9304;SDS011;4690;52.422;13.486;2024-03-25T02:05:19;7.90;;;4.80;;
9304;SDS011;4690;52.422;13.486;2024-03-25T02:07:46;6.93;;;4.63;;
9304;SDS011;4690;52.422;13.486;2024-03-25T02:10:14;5.47;;;4.33;;
9304;SDS011;4690;52.422;13.486;2024-03-25T02:12:44;5.37;;;4.10;;
9304;SDS011;4690;52.422;13.486;2024-03-25T02:15:11;7.37;;;4.53;;
9304;SDS011;4690;52.422;13.486;2024-03-25T02:17:38;10.17;;;4.60;;
9304;SDS011;4690;52.422;13.486;2024-03-25T02:20:04;4.57;;;3.57;;
9304;SDS011;4690;52.422;13.486;2024-03-25T02:22:33;4.40;;;3.50;;
9304;SDS011;4690;52.422;13.486;2024-03-25T02:25:06;5.53;;;3.50;;
9304;SDS011;4690;52.422;13.486;2024-03-25T02:27:34;3.50;;;3.03;;
9304;SDS011;4690;52.422;13.486;2024-03-25T02:32:34;6.33;;;4.17;;
9304;SDS011;4690;52.422;13.486;2024-03-25T02:35:01;7.33;;;4.80;;
9304;SDS011;4690;52.422;13.486;2024-03-25T02:37:31;4.23;;;3.83;;
9304;SDS011;4690;52.422;13.486;2024-03-25T02:39:58;9.47;;;5.70;;
9304;SDS011;4690;52.422;13.486;2024-03-25T02:42:26;9.43;;;5.70;;
9304;SDS011;4690;52.422;13.486;2024-03-25T02:44:54;12.67;;;6.70;;
9304;SDS011;4690;52.422;13.486;2024-03-25T02:47:21;13.77;;;6.30;;
9304;SDS011;4690;52.422;13.486;2024-03-25T02:49:47;14.97;;;7.87;;
9304;SDS011;4690;52.422;13.486;2024-03-25T02:52:13;17.07;;;8.70;;
9304;SDS011;4690;52.422;13.486;2024-03-25T02:54:39;14.40;;;8.57;;
9304;SDS011;4690;52.422;13.486;2024-03-25T02:57:05;18.20;;;9.60;;
9304;SDS011;4690;52.422;13.486;2024-03-25T02:59:31;12.70;;;7.93;;
9304;SDS011;4690;52.422;13.486;2024-03-25T03:01:57;13.77;;;8.80;;
9304;SDS011;4690;52.422;13.486;2024-03-25T03:04:23;12.07;;;8.00;;
9304;SDS011;4690;52.422;13.486;2024-03-25T03:06:48;12.83;;;8.60;;
9304;SDS011;4690;52.422;13.486;2024-03-25T03:09:14;15.63;;;8.50;;
9304;SDS011;4690;52.422;13.486;2024-03-25T03:11:40;16.17;;;8.60;;
9304;SDS011;4690;52.422;13.486;2024-03-25T03:14:06;13.00;;;7.33;;
9304;SDS011;4690;52.422;13.486;2024-03-25T03:16:32;12.60;;;7.27;;
9304;SDS011;4690;52.422;13.486;2024-03-25T03:18:58;13.30;;;6.80;;
9304;SDS011;4690;52.422;13.486;2024-03-25T03:21:24;6.83;;;5.43;;
9304;SDS011;4690;52.422;13.486;2024-03-25T03:23:49;11.47;;;6.40;;
9304;SDS011;4690;52.422;13.486;2024-03-25T03:26:15;11.77;;;6.43;;
9304;SDS011;4690;52.422;13.486;2024-03-25T03:28:41;9.07;;;5.93;;
9304;SDS011;4690;52.422;13.486;2024-03-25T03:31:07;16.37;;;7.57;;
9304;SDS011;4690;52.422;13.486;2024-03-25T03:33:33;8.63;;;5.57;;
9304;SDS011;4690;52.422;13.486;2024-03-25T03:35:59;8.47;;;5.67;;
9304;SDS011;4690;52.422;13.486;2024-03-25T03:38:24;10.47;;;5.87;;
9304;SDS011;4690;52.422;13.486;2024-03-25T03:41:02;10.20;;;6.47;;
9304;SDS011;4690;52.422;13.486;2024-03-25T03:43:28;10.13;;;5.47;;
9304;SDS011;4690;52.422;13.486;2024-03-25T03:45:54;8.17;;;6.03;;
9304;SDS011;4690;52.422;13.486;2024-03-25T03:48:20;8.93;;;5.80;;
9304;SDS011;4690;52.422;13.486;2024-03-25T03:50:46;9.20;;;5.63;;
9304;SDS011;4690;52.422;13.486;2024-03-25T03:53:11;10.40;;;6.33;;
9304;SDS011;4690;52.422;13.486;2024-03-25T03:55:37;11.97;;;6.33;;
9304;SDS011;4690;52.422;13.486;2024-03-25T03:58:03;6.00;;;4.70;;
9304;SDS011;4690;52.422;13.486;2024-03-25T04:00:29;11.87;;;5.77;;
9304;SDS011;4690;52.422;13.486;2024-03-25T04:02:59;10.73;;;6.17;;
9304;SDS011;4690;52.422;13.486;2024-03-25T04:05:29;7.07;;;5.30;;
9304;SDS011;4690;52.422;13.486;2024-03-25T04:07:55;7.33;;;5.30;;
9304;SDS011;4690;52.422;13.486;2024-03-25T04:10:22;7.23;;;5.10;;
9304;SDS011;4690;52.422;13.486;2024-03-25T04:12:48;7.90;;;4.93;;
9304;SDS011;4690;52.422;13.486;2024-03-25T04:15:14;10.03;;;5.23;;
9304;SDS011;4690;52.422;13.486;2024-03-25T04:17:43;8.53;;;5.23;;
9304;SDS011;4690;52.422;13.486;2024-03-25T04:20:10;10.57;;;5.50;;
9304;SDS011;4690;52.422;13.486;2024-03-25T04:22:40;6.77;;;4.93;;
9304;SDS011;4690;52.422;13.486;2024-03-25T04:25:10;11.40;;;6.33;;
9304;SDS011;4690;52.422;13.486;2024-03-25T04:27:40;10.57;;;5.93;;
9304;SDS011;4690;52.422;13.486;2024-03-25T04:30:07;7.60;;;5.43;;
9304;SDS011;4690;52.422;13.486;2024-03-25T04:32:35;9.67;;;5.73;;
9304;SDS011;4690;52.422;13.486;2024-03-25T04:35:01;7.70;;;5.30;;
9304;SDS011;4690;52.422;13.486;2024-03-25T04:37:28;11.07;;;6.00;;
9304;SDS011;4690;52.422;13.486;2024-03-25T04:39:55;8.77;;;5.57;;
9304;SDS011;4690;52.422;13.486;2024-03-25T04:42:21;8.33;;;5.13;;
9304;SDS011;4690;52.422;13.486;2024-03-25T04:44:48;8.50;;;4.97;;
9304;SDS011;4690;52.422;13.486;2024-03-25T04:47:15;10.83;;;5.93;;
9304;SDS011;4690;52.422;13.486;2024-03-25T04:49:42;10.03;;;5.73;;
9304;SDS011;4690;52.422;13.486;2024-03-25T04:52:08;8.97;;;5.47;;
9304;SDS011;4690;52.422;13.486;2024-03-25T04:54:35;11.90;;;5.87;;
9304;SDS011;4690;52.422;13.486;2024-03-25T04:57:01;14.70;;;6.67;;
9304;SDS011;4690;52.422;13.486;2024-03-25T04:59:26;9.93;;;5.77;;
9304;SDS011;4690;52.422;13.486;2024-03-25T05:01:52;11.23;;;5.97;;
9304;SDS011;4690;52.422;13.486;2024-03-25T05:04:18;10.13;;;5.33;;
9304;SDS011;4690;52.422;13.486;2024-03-25T05:06:45;12.73;;;6.50;;
9304;SDS011;4690;52.422;13.486;2024-03-25T05:09:11;8.20;;;5.03;;
9304;SDS011;4690;52.422;13.486;2024-03-25T05:11:37;12.07;;;6.07;;
9304;SDS011;4690;52.422;13.486;2024-03-25T05:14:02;12.63;;;6.53;;
9304;SDS011;4690;52.422;13.486;2024-03-25T05:16:28;16.33;;;7.30;;
9304;SDS011;4690;52.422;13.486;2024-03-25T05:18:54;10.87;;;5.80;;
9304;SDS011;4690;52.422;13.486;2024-03-25T05:21:19;18.90;;;6.77;;
9304;SDS011;4690;52.422;13.486;2024-03-25T05:23:45;17.20;;;7.73;;
9304;SDS011;4690;52.422;13.486;2024-03-25T05:26:11;13.73;;;6.80;;
9304;SDS011;4690;52.422;13.486;2024-03-25T05:28:36;13.13;;;6.53;;
9304;SDS011;4690;52.422;13.486;2024-03-25T05:31:06;17.80;;;7.70;;
9304;SDS011;4690;52.422;13.486;2024-03-25T05:33:35;15.87;;;7.63;;
9304;SDS011;4690;52.422;13.486;2024-03-25T05:36:02;12.60;;;7.30;;
9304;SDS011;4690;52.422;13.486;2024-03-25T05:38:28;12.87;;;7.20;;
9304;SDS011;4690;52.422;13.486;2024-03-25T05:40:54;11.50;;;6.57;;
9304;SDS011;4690;52.422;13.486;2024-03-25T05:43:21;13.60;;;7.27;;
9304;SDS011;4690;52.422;13.486;2024-03-25T05:45:51;19.57;;;7.67;;
9304;SDS011;4690;52.422;13.486;2024-03-25T05:48:18;15.13;;;7.53;;
9304;SDS011;4690;52.422;13.486;2024-03-25T05:50:44;16.60;;;7.47;;
9304;SDS011;4690;52.422;13.486;2024-03-25T05:53:10;10.73;;;6.33;;
9304;SDS011;4690;52.422;13.486;2024-03-25T05:55:36;12.07;;;6.73;;
9304;SDS011;4690;52.422;13.486;2024-03-25T05:58:02;13.23;;;6.90;;
9304;SDS011;4690;52.422;13.486;2024-03-25T06:00:32;17.30;;;8.03;;
9304;SDS011;4690;52.422;13.486;2024-03-25T06:02:58;11.23;;;7.27;;
9304;SDS011;4690;52.422;13.486;2024-03-25T06:05:24;14.53;;;7.07;;
9304;SDS011;4690;52.422;13.486;2024-03-25T06:07:49;17.67;;;7.73;;
9304;SDS011;4690;52.422;13.486;2024-03-25T06:10:15;13.93;;;8.23;;
9304;SDS011;4690;52.422;13.486;2024-03-25T06:12:41;18.43;;;7.80;;
9304;SDS011;4690;52.422;13.486;2024-03-25T06:15:07;26.10;;;10.30;;
9304;SDS011;4690;52.422;13.486;2024-03-25T06:17:33;20.57;;;9.13;;
9304;SDS011;4690;52.422;13.486;2024-03-25T06:19:59;24.43;;;9.70;;
9304;SDS011;4690;52.422;13.486;2024-03-25T06:22:24;18.43;;;8.47;;
9304;SDS011;4690;52.422;13.486;2024-03-25T06:24:51;15.27;;;7.67;;
9304;SDS011;4690;52.422;13.486;2024-03-25T06:27:16;17.57;;;8.43;;
9304;SDS011;4690;52.422;13.486;2024-03-25T06:29:42;21.37;;;8.90;;
9304;SDS011;4690;52.422;13.486;2024-03-25T06:32:09;16.53;;;9.00;;
9304;SDS011;4690;52.422;13.486;2024-03-25T06:34:53;16.90;;;7.80;;
9304;SDS011;4690;52.422;13.486;2024-03-25T06:37:19;17.47;;;8.27;;
9304;SDS011;4690;52.422;13.486;2024-03-25T06:39:45;15.87;;;7.80;;
9304;SDS011;4690;52.422;13.486;2024-03-25T06:42:10;18.97;;;8.47;;
9304;SDS011;4690;52.422;13.486;2024-03-25T06:44:36;15.17;;;7.60;;
9304;SDS011;4690;52.422;13.486;2024-03-25T06:47:02;13.33;;;7.13;;
9304;SDS011;4690;52.422;13.486;2024-03-25T06:49:28;11.87;;;6.90;;
9304;SDS011;4690;52.422;13.486;2024-03-25T06:51:54;14.97;;;7.13;;
9304;SDS011;4690;52.422;13.486;2024-03-25T06:54:19;16.07;;;7.50;;
9304;SDS011;4690;52.422;13.486;2024-03-25T06:56:45;14.10;;;7.03;;
9304;SDS011;4690;52.422;13.486;2024-03-25T06:59:11;14.13;;;7.20;;
9304;SDS011;4690;52.422;13.486;2024-03-25T07:01:36;11.53;;;6.87;;
9304;SDS011;4690;52.422;13.486;2024-03-25T07:04:02;12.17;;;6.67;;
9304;SDS011;4690;52.422;13.486;2024-03-25T07:06:28;16.73;;;6.90;;
9304;SDS011;4690;52.422;13.486;2024-03-25T07:08:54;8.77;;;6.50;;
9304;SDS011;4690;52.422;13.486;2024-03-25T07:11:20;12.37;;;7.13;;
9304;SDS011;4690;52.422;13.486;2024-03-25T07:13:45;12.33;;;6.80;;
9304;SDS011;4690;52.422;13.486;2024-03-25T07:16:12;15.57;;;7.17;;
9304;SDS011;4690;52.422;13.486;2024-03-25T07:18:37;13.30;;;6.63;;
9304;SDS011;4690;52.422;13.486;2024-03-25T07:21:03;10.63;;;7.30;;
9304;SDS011;4690;52.422;13.486;2024-03-25T07:23:29;10.73;;;6.60;;
9304;SDS011;4690;52.422;13.486;2024-03-25T07:25:55;10.10;;;6.93;;
9304;SDS011;4690;52.422;13.486;2024-03-25T07:28:21;16.13;;;7.47;;
9304;SDS011;4690;52.422;13.486;2024-03-25T07:30:49;12.73;;;7.30;;
9304;SDS011;4690;52.422;13.486;2024-03-25T07:33:15;12.07;;;6.30;;
9304;SDS011;4690;52.422;13.486;2024-03-25T07:35:42;15.30;;;7.57;;
9304;SDS011;4690;52.422;13.486;2024-03-25T07:38:10;15.10;;;7.63;;
9304;SDS011;4690;52.422;13.486;2024-03-25T07:40:35;12.20;;;7.17;;
9304;SDS011;4690;52.422;13.486;2024-03-25T07:43:01;10.43;;;6.57;;
9304;SDS011;4690;52.422;13.486;2024-03-25T07:45:27;11.20;;;6.93;;
9304;SDS011;4690;52.422;13.486;2024-03-25T07:47:53;10.33;;;6.30;;
9304;SDS011;4690;52.422;13.486;2024-03-25T07:50:20;10.30;;;6.77;;
9304;SDS011;4690;52.422;13.486;2024-03-25T07:52:46;12.47;;;6.83;;
9304;SDS011;4690;52.422;13.486;2024-03-25T07:55:11;10.20;;;6.20;;
9304;SDS011;4690;52.422;13.486;2024-03-25T07:57:37;11.67;;;5.83;;
9304;SDS011;4690;52.422;13.486;2024-03-25T08:00:04;10.20;;;5.73;;
9304;SDS011;4690;52.422;13.486;2024-03-25T08:02:30;8.47;;;6.30;;
9304;SDS011;4690;52.422;13.486;2024-03-25T08:04:56;11.00;;;6.03;;
9304;SDS011;4690;52.422;13.486;2024-03-25T08:07:22;10.23;;;5.67;;
9304;SDS011;4690;52.422;13.486;2024-03-25T08:09:47;7.23;;;5.13;;
9304;SDS011;4690;52.422;13.486;2024-03-25T08:12:13;7.03;;;4.90;;
9304;SDS011;4690;52.422;13.486;2024-03-25T08:14:39;8.73;;;5.30;;
9304;SDS011;4690;52.422;13.486;2024-03-25T08:17:05;12.50;;;5.70;;
9304;SDS011;4690;52.422;13.486;2024-03-25T08:19:30;7.90;;;5.13;;
9304;SDS011;4690;52.422;13.486;2024-03-25T08:21:56;7.70;;;5.53;;
9304;SDS011;4690;52.422;13.486;2024-03-25T08:24:22;8.57;;;5.50;;
9304;SDS011;4690;52.422;13.486;2024-03-25T08:26:48;9.07;;;5.50;;
9304;SDS011;4690;52.422;13.486;2024-03-25T08:29:14;8.17;;;5.50;;
9304;SDS011;4690;52.422;13.486;2024-03-25T08:31:40;8.90;;;5.33;;
9304;SDS011;4690;52.422;13.486;2024-03-25T08:34:05;8.37;;;5.37;;
9304;SDS011;4690;52.422;13.486;2024-03-25T08:36:32;10.67;;;5.87;;
9304;SDS011;4690;52.422;13.486;2024-03-25T08:38:57;6.67;;;5.17;;
9304;SDS011;4690;52.422;13.486;2024-03-25T08:41:23;11.43;;;6.03;;
9304;SDS011;4690;52.422;13.486;2024-03-25T08:43:49;8.20;;;6.23;;
9304;SDS011;4690;52.422;13.486;2024-03-25T08:46:14;9.17;;;5.67;;
9304;SDS011;4690;52.422;13.486;2024-03-25T08:48:40;9.57;;;5.60;;
9304;SDS011;4690;52.422;13.486;2024-03-25T08:51:06;10.40;;;6.27;;
9304;SDS011;4690;52.422;13.486;2024-03-25T08:53:32;8.93;;;6.07;;
9304;SDS011;4690;52.422;13.486;2024-03-25T08:55:58;8.67;;;5.80;;
9304;SDS011;4690;52.422;13.486;2024-03-25T08:58:24;8.60;;;5.60;;
9304;SDS011;4690;52.422;13.486;2024-03-25T09:00:50;8.03;;;5.50;;
9304;SDS011;4690;52.422;13.486;2024-03-25T09:03:16;12.40;;;5.60;;
9304;SDS011;4690;52.422;13.486;2024-03-25T09:05:42;8.13;;;5.13;;
9304;SDS011;4690;52.422;13.486;2024-03-25T09:08:07;8.43;;;5.23;;
9304;SDS011;4690;52.422;13.486;2024-03-25T09:10:36;9.67;;;4.60;;
9304;SDS011;4690;52.422;13.486;2024-03-25T09:13:21;7.07;;;4.87;;
9304;SDS011;4690;52.422;13.486;2024-03-25T09:15:48;11.00;;;4.93;;
9304;SDS011;4690;52.422;13.486;2024-03-25T09:18:14;7.47;;;5.17;;
9304;SDS011;4690;52.422;13.486;2024-03-25T09:20:40;5.77;;;4.43;;
9304;SDS011;4690;52.422;13.486;2024-03-25T09:23:06;6.10;;;4.60;;
9304;SDS011;4690;52.422;13.486;2024-03-25T09:25:32;5.77;;;4.33;;
9304;SDS011;4690;52.422;13.486;2024-03-25T09:27:58;5.77;;;4.50;;
9304;SDS011;4690;52.422;13.486;2024-03-25T09:30:24;7.37;;;4.47;;
9304;SDS011;4690;52.422;13.486;2024-03-25T09:32:49;6.30;;;4.53;;
9304;SDS011;4690;52.422;13.486;2024-03-25T09:35:15;6.60;;;4.23;;
9304;SDS011;4690;52.422;13.486;2024-03-25T09:37:41;5.53;;;4.73;;
9304;SDS011;4690;52.422;13.486;2024-03-25T09:40:07;8.20;;;4.70;;
9304;SDS011;4690;52.422;13.486;2024-03-25T09:42:42;9.17;;;4.90;;
9304;SDS011;4690;52.422;13.486;2024-03-25T09:45:17;7.93;;;5.07;;
9304;SDS011;4690;52.422;13.486;2024-03-25T09:47:47;9.23;;;4.70;;
9304;SDS011;4690;52.422;13.486;2024-03-25T09:50:14;9.77;;;5.00;;
9304;SDS011;4690;52.422;13.486;2024-03-25T09:52:44;9.57;;;5.47;;
9304;SDS011;4690;52.422;13.486;2024-03-25T09:55:14;9.13;;;5.00;;
9304;SDS011;4690;52.422;13.486;2024-03-25T09:57:41;5.83;;;4.77;;
9304;SDS011;4690;52.422;13.486;2024-03-25T10:00:08;7.03;;;4.50;;
9304;SDS011;4690;52.422;13.486;2024-03-25T10:02:39;5.77;;;3.70;;
9304;SDS011;4690;52.422;13.486;2024-03-25T10:05:07;5.47;;;4.27;;
9304;SDS011;4690;52.422;13.486;2024-03-25T10:07:33;4.67;;;3.90;;
9304;SDS011;4690;52.422;13.486;2024-03-25T10:10:03;4.43;;;3.60;;
9304;SDS011;4690;52.422;13.486;2024-03-25T10:12:30;4.10;;;3.60;;
9304;SDS011;4690;52.422;13.486;2024-03-25T10:14:56;4.60;;;3.40;;
9304;SDS011;4690;52.422;13.486;2024-03-25T10:17:22;4.90;;;3.80;;
9304;SDS011;4690;52.422;13.486;2024-03-25T10:19:48;4.00;;;3.40;;
9304;SDS011;4690;52.422;13.486;2024-03-25T10:22:14;3.90;;;3.33;;
9304;SDS011;4690;52.422;13.486;2024-03-25T10:24:43;3.60;;;3.00;;
9304;SDS011;4690;52.422;13.486;2024-03-25T10:27:16;5.13;;;3.20;;
9304;SDS011;4690;52.422;13.486;2024-03-25T10:29:47;4.67;;;3.00;;
9304;SDS011;4690;52.422;13.486;2024-03-25T10:32:16;5.33;;;3.30;;
9304;SDS011;4690;52.422;13.486;2024-03-25T10:34:42;4.83;;;3.03;;
9304;SDS011;4690;52.422;13.486;2024-03-25T10:37:09;4.50;;;3.37;;
9304;SDS011;4690;52.422;13.486;2024-03-25T10:39:39;3.93;;;3.30;;
9304;SDS011;4690;52.422;13.486;2024-03-25T10:42:14;3.83;;;2.97;;
9304;SDS011;4690;52.422;13.486;2024-03-25T10:44:44;5.10;;;3.13;;
9304;SDS011;4690;52.422;13.486;2024-03-25T10:47:11;4.30;;;3.43;;
9304;SDS011;4690;52.422;13.486;2024-03-25T10:49:59;4.07;;;2.70;;
9304;SDS011;4690;52.422;13.486;2024-03-25T10:52:34;3.90;;;2.80;;
9304;SDS011;4690;52.422;13.486;2024-03-25T10:55:02;3.63;;;2.57;;
9304;SDS011;4690;52.422;13.486;2024-03-25T10:57:29;3.93;;;2.70;;
9304;SDS011;4690;52.422;13.486;2024-03-25T10:59:57;3.50;;;2.63;;
9304;SDS011;4690;52.422;13.486;2024-03-25T11:02:24;5.47;;;2.83;;
9304;SDS011;4690;52.422;13.486;2024-03-25T11:04:50;3.70;;;2.50;;
9304;SDS011;4690;52.422;13.486;2024-03-25T11:07:27;3.43;;;2.53;;
9304;SDS011;4690;52.422;13.486;2024-03-25T11:10:07;3.93;;;2.47;;
9304;SDS011;4690;52.422;13.486;2024-03-25T11:12:37;2.60;;;2.40;;
9304;SDS011;4690;52.422;13.486;2024-03-25T11:15:05;2.53;;;2.33;;
9304;SDS011;4690;52.422;13.486;2024-03-25T11:17:32;2.73;;;2.30;;
9304;SDS011;4690;52.422;13.486;2024-03-25T11:20:11;5.90;;;2.33;;
9304;SDS011;4690;52.422;13.486;2024-03-25T11:22:52;3.83;;;2.50;;
9304;SDS011;4690;52.422;13.486;2024-03-25T11:25:20;5.43;;;2.40;;
9304;SDS011;4690;52.422;13.486;2024-03-25T11:27:46;2.67;;;2.13;;
9304;SDS011;4690;52.422;13.486;2024-03-25T11:30:13;3.70;;;2.50;;
9304;SDS011;4690;52.422;13.486;2024-03-25T11:32:51;2.60;;;2.20;;
9304;SDS011;4690;52.422;13.486;2024-03-25T11:35:18;4.57;;;2.57;;
9304;SDS011;4690;52.422;13.486;2024-03-25T11:37:45;4.77;;;2.30;;
9304;SDS011;4690;52.422;13.486;2024-03-25T11:40:11;2.60;;;2.10;;
9304;SDS011;4690;52.422;13.486;2024-03-25T11:42:42;4.00;;;2.20;;
9304;SDS011;4690;52.422;13.486;2024-03-25T11:45:19;3.20;;;2.20;;
9304;SDS011;4690;52.422;13.486;2024-03-25T11:47:48;3.50;;;2.00;;
9304;SDS011;4690;52.422;13.486;2024-03-25T11:50:15;5.27;;;2.30;;
9304;SDS011;4690;52.422;13.486;2024-03-25T11:52:42;4.13;;;2.30;;
9304;SDS011;4690;52.422;13.486;2024-03-25T11:55:09;2.50;;;2.10;;
9304;SDS011;4690;52.422;13.486;2024-03-25T11:57:36;3.73;;;2.60;;
9304;SDS011;4690;52.422;13.486;2024-03-25T12:00:04;3.83;;;2.30;;
9304;SDS011;4690;52.422;13.486;2024-03-25T12:02:35;3.23;;;2.03;;
9304;SDS011;4690;52.422;13.486;2024-03-25T12:05:02;2.47;;;2.10;;
9304;SDS011;4690;52.422;13.486;2024-03-25T12:07:31;2.47;;;2.13;;
9304;SDS011;4690;52.422;13.486;2024-03-25T12:09:59;2.47;;;2.00;;
9304;SDS011;4690;52.422;13.486;2024-03-25T12:12:44;2.63;;;2.37;;
9304;SDS011;4690;52.422;13.486;2024-03-25T12:15:11;2.20;;;2.00;;
9304;SDS011;4690;52.422;13.486;2024-03-25T12:17:37;3.23;;;2.20;;
9304;SDS011;4690;52.422;13.486;2024-03-25T12:20:07;3.83;;;2.20;;
9304;SDS011;4690;52.422;13.486;2024-03-25T12:22:35;3.47;;;2.70;;
9304;SDS011;4690;52.422;13.486;2024-03-25T12:25:05;3.30;;;2.40;;
9304;SDS011;4690;52.422;13.486;2024-03-25T12:27:33;3.40;;;2.30;;
9304;SDS011;4690;52.422;13.486;2024-03-25T12:34:59;2.97;;;1.63;;
9304;SDS011;4690;52.422;13.486;2024-03-25T12:37:27;3.10;;;1.70;;
9304;SDS011;4690;52.422;13.486;2024-03-25T12:39:53;2.13;;;1.70;;
9304;SDS011;4690;52.422;13.486;2024-03-25T12:42:19;3.47;;;1.53;;
9304;SDS011;4690;52.422;13.486;2024-03-25T12:44:45;2.33;;;1.60;;
9304;SDS011;4690;52.422;13.486;2024-03-25T12:47:11;2.13;;;1.60;;
9304;SDS011;4690;52.422;13.486;2024-03-25T12:49:36;2.53;;;1.60;;
9304;SDS011;4690;52.422;13.486;2024-03-25T12:52:05;1.73;;;1.50;;
9304;SDS011;4690;52.422;13.486;2024-03-25T12:54:32;1.70;;;1.55;;
9304;SDS011;4690;52.422;13.486;2024-03-25T12:56:58;1.55;;;1.45;;
9304;SDS011;4690;52.422;13.486;2024-03-25T12:59:24;1.98;;;1.50;;
9304;SDS011;4690;52.422;13.486;2024-03-25T13:01:50;2.72;;;1.55;;
9304;SDS011;4690;52.422;13.486;2024-03-25T13:04:16;1.92;;;1.70;;
9304;SDS011;4690;52.422;13.486;2024-03-25T13:06:42;2.25;;;1.60;;
9304;SDS011;4690;52.422;13.486;2024-03-25T13:09:08;2.08;;;1.60;;
9304;SDS011;4690;52.422;13.486;2024-03-25T13:11:34;2.77;;;1.60;;
9304;SDS011;4690;52.422;13.486;2024-03-25T13:14:01;1.60;;;1.50;;
9304;SDS011;4690;52.422;13.486;2024-03-25T13:16:31;2.20;;;1.40;;
9304;SDS011;4690;52.422;13.486;2024-03-25T13:18:58;1.50;;;1.40;;
9304;SDS011;4690;52.422;13.486;2024-03-25T13:21:24;2.00;;;1.50;;
9304;SDS011;4690;52.422;13.486;2024-03-25T13:23:51;2.13;;;1.70;;
9304;SDS011;4690;52.422;13.486;2024-03-25T13:26:17;2.50;;;1.53;;
9304;SDS011;4690;52.422;13.486;2024-03-25T13:28:43;1.40;;;1.30;;
9304;SDS011;4690;52.422;13.486;2024-03-25T13:31:09;2.73;;;1.60;;
9304;SDS011;4690;52.422;13.486;2024-03-25T13:33:34;1.50;;;1.40;;
9304;SDS011;4690;52.422;13.486;2024-03-25T13:36:01;1.37;;;1.23;;
9304;SDS011;4690;52.422;13.486;2024-03-25T13:38:28;2.60;;;1.47;;
9304;SDS011;4690;52.422;13.486;2024-03-25T13:40:54;1.57;;;1.30;;
9304;SDS011;4690;52.422;13.486;2024-03-25T13:43:20;1.70;;;1.50;;
9304;SDS011;4690;52.422;13.486;2024-03-25T13:45:49;1.50;;;1.37;;
9304;SDS011;4690;52.422;13.486;2024-03-25T13:48:15;1.60;;;1.50;;
9304;SDS011;4690;52.422;13.486;2024-03-25T13:50:41;1.87;;;1.50;;
9304;SDS011;4690;52.422;13.486;2024-03-25T13:53:08;2.33;;;1.50;;
9304;SDS011;4690;52.422;13.486;2024-03-25T13:55:35;2.80;;;1.50;;
9304;SDS011;4690;52.422;13.486;2024-03-25T13:58:01;1.73;;;1.60;;
9304;SDS011;4690;52.422;13.486;2024-03-25T14:00:27;1.90;;;1.80;;
9304;SDS011;4690;52.422;13.486;2024-03-25T14:02:56;2.50;;;1.40;;
9304;SDS011;4690;52.422;13.486;2024-03-25T14:05:22;1.50;;;1.40;;
9304;SDS011;4690;52.422;13.486;2024-03-25T14:07:48;3.10;;;1.60;;
9304;SDS011;4690;52.422;13.486;2024-03-25T14:10:15;1.83;;;1.60;;
9304;SDS011;4690;52.422;13.486;2024-03-25T14:12:41;2.63;;;1.50;;
9304;SDS011;4690;52.422;13.486;2024-03-25T14:15:07;3.77;;;1.53;;
9304;SDS011;4690;52.422;13.486;2024-03-25T14:17:34;2.17;;;1.53;;
9304;SDS011;4690;52.422;13.486;2024-03-25T14:20:00;3.33;;;1.60;;
9304;SDS011;4690;52.422;13.486;2024-03-25T14:22:26;1.60;;;1.50;;
9304;SDS011;4690;52.422;13.486;2024-03-25T14:24:52;6.20;;;1.60;;
9304;SDS011;4690;52.422;13.486;2024-03-25T14:27:22;1.63;;;1.53;;
9304;SDS011;4690;52.422;13.486;2024-03-25T14:29:49;1.97;;;1.50;;
9304;SDS011;4690;52.422;13.486;2024-03-25T14:32:17;2.73;;;1.50;;
9304;SDS011;4690;52.422;13.486;2024-03-25T14:34:45;1.77;;;1.47;;
9304;SDS011;4690;52.422;13.486;2024-03-25T14:37:12;4.50;;;1.80;;
9304;SDS011;4690;52.422;13.486;2024-03-25T14:39:39;1.67;;;1.57;;
9304;SDS011;4690;52.422;13.486;2024-03-25T14:42:07;1.67;;;1.40;;
9304;SDS011;4690;52.422;13.486;2024-03-25T14:44:37;1.57;;;1.40;;
9304;SDS011;4690;52.422;13.486;2024-03-25T14:47:03;2.43;;;1.47;;
9304;SDS011;4690;52.422;13.486;2024-03-25T14:49:29;1.63;;;1.53;;
9304;SDS011;4690;52.422;13.486;2024-03-25T14:51:56;2.17;;;1.90;;
9304;SDS011;4690;52.422;13.486;2024-03-25T14:54:22;2.13;;;1.47;;
9304;SDS011;4690;52.422;13.486;2024-03-25T14:56:48;2.70;;;1.70;;
9304;SDS011;4690;52.422;13.486;2024-03-25T14:59:14;1.50;;;1.40;;
9304;SDS011;4690;52.422;13.486;2024-03-25T15:01:40;1.67;;;1.57;;
9304;SDS011;4690;52.422;13.486;2024-03-25T15:04:06;2.23;;;1.80;;
9304;SDS011;4690;52.422;13.486;2024-03-25T15:06:35;2.23;;;1.80;;
9304;SDS011;4690;52.422;13.486;2024-03-25T15:09:01;2.00;;;1.80;;